메인 페이지
METAR-TAF:

METAR-TAF

공항 :

베를린 테겔 국제공항

베를린, 독일

위도: 52-34N, 경도: 013-19E, 고도: 37m

현재 날씨관측

예보는 11분 전, 11:50시(UTC)에 발표되었습니다.
북서8kt풍과 북북서풍을 오가는
온도 12°C
습도 50%
기압 1028 hPa
시정 10km 이상
고도 4000ft 상공 구름 조금

METAR: EDDT 201150Z 31008KT 280V340 9999 FEW040 12/02 Q1028 NOSIG

시각: 14:01 (12:01 UTC)

예보

예보는 1 시간 1분 전, 11:00시(UTC)에 발표되었습니다.
예보 대상 시간: 20일 12시부터 21일 12시까지 (UTC)
8kt
시정 10km 이상
고도 4000ft 상공 구름 보통
전환 중
20일 16시부터 20일 19시까지 (UTC)
3kt
전환 중
21일 03시부터 21일 06시까지 (UTC)
시정: 4000m
고도 600ft 상공 구름 많음
박무
확률 30% :
일시적
21일 03시부터 21일 08시까지 (UTC)
시정: 2000m
고도 100ft 상공 구름 많음
곳곳에 안개
전환 중
21일 07시부터 21일 10시까지 (UTC)
시정: 8000m

TAF: EDDT 201100Z 2012/2112 28008KT 9999 SCT040 BECMG 2016/2019 27003KT BECMG 2103/2106 4000 BR BKN006 PROB30 TEMPO 2103/2108 2000 BCFG BKN001 BECMG 2107/2110 8000 NSC

4,000개 이상의 공항 관측 자료 및 예보 (METAR 및 TAF 보고).

지도상에서 검색 가능한 기상관측소가 노란 점과 빨간 점으로 표시되어 있습니다.

기상관측소 명을 보려면 표시 위로 마우스를 이동하세요.

날씨 관측과 예보를 보려면 클릭하세요.

지도 변경 : 확대하려면 엑스 표시가 있는 녹색 버튼, 축소하려면 빼기 표시가 있는 녹색 버튼, 다음 페이지의 지도를 보려면 녹색 화살표를 클릭하세요.


METAR-TAF: